Terminal Aerodrome Forecast
Issued by NWS

Home | Current Version | Previous Version | Text Only | Print | Product List | Glossary On
Versions: 1 2 3 4 5 6 7 8 9 10 11 12
000
FTUS45 KBOI 170520
TAFMYL
TAF
KMYL 170520Z 1706/1806 20005KT P6SM BKN080
     FM171300 VRB03KT P6SM BKN080 OVC120=

USA.gov is the U.S. government's official web portal to all federal, state and local government web resources and services.